Oklahoma City, OK (73115)

1:19 PM CDT on July 23, 2016 (GMT -0500)
Del Aire | | Change Station
Active Advisory: Heat Advisory

Elev 1237 ft 35.42 °N, 97.43 °W | Updated 22 seconds ago

Clear
Clear
100.8 °F
Feels Like 108 °F
N
6.8
Wind Variable Wind from SSW

Today
High -- | Low -- °F
--% Chance of Precip.
Yesterday
High -- | Low -- °F
Precip. -- in
Pressure 29.93 in
Visibility 10.0 miles
Clouds Clear
Heat Index 108 °F
Dew Point 69 °F
Humidity 36%
Rainfall 0.00 in
Snow Depth Not available.
6:31 AM 8:40 PM
Waning Gibbous, 83% visible
METAR KTIK 231758Z 20010KT 10SM CLR 35/20 A2997 RMK AO2A SLP133 T03470199 10347 20236 58008
Pressure 29.93 in
Visibility 10.0 miles
Clouds Clear
Heat Index 108 °F
Dew Point 69 °F
Humidity 36%
Rainfall 0.00 in
Snow Depth Not available.
6:31 AM 8:40 PM
Waning Gibbous, 83% visible
METAR KTIK 231758Z 20010KT 10SM CLR 35/20 A2997 RMK AO2A SLP133 T03470199 10347 20236 58008

10-Day Weather Forecast

Almanac

Astronomy

Jul. 23, 2016 Rise Set
Actual Time
Civil Twilight
Nautical Twilight
Astronomical Twilight
Moon
Length of Visible Light
Length of Day
Tomorrow will be .
, % of the Moon is Illuminated

Today's Extremes

State Highs State Lows

Community

WunderPhotos

Upload Photos

1,926,881 photos uploaded!

WunderBlog® & News

Nearby

Air Quality

  Air Quality AQ Index Pollutant
Not available.

Snow Depth

Station Depth Elevation

Earthquake Activity

City Distance Mag. Time & Date
Minimum magnitude displayed is 2.5.

Coastal Water Temperatures

Place Temperature

Stations

Nearby Weather Stations

Station Location Temp. Windchill Dew Point Humidity Wind Precip. Elev Updated Type
                   

Watches & Warnings

Heat Advisory
Issued: 3:13 AM CDT Jul. 23, 2016 – National Weather Service

... Heat advisory now in effect until 8 PM CDT Sunday...

* temperature... afternoon and early evening heat index values
105 to 110.

* Impacts... heat exhaustion or heat stroke can quickly occur to
anyone working or participating in outdoor activities.

Precautionary/preparedness actions...

Take extra precautions if you work or spend time outside. When
possible... reschedule strenuous activities to early morning or
evening. Know the signs and symptoms of heat exhaustion and heat
stroke. Wear lightweight and loose fitting clothing when possible
and drink plenty of water.

To reduce risk during outdoor work the occupational safety and
health administration recommends scheduling frequent rest breaks
in shaded or air conditioned environments. Anyone overcome by
heat should be moved to a cool and shaded location. Heat stroke
is an emergency... call 9 1 1.